sensor_id;sensor_type;location;lat;lon;timestamp;temperature;humidity
38480;DHT22;62333;51.980;5.934;2023-11-18T00:01:24;10.90;76.70
38480;DHT22;62333;51.980;5.934;2023-11-18T00:03:50;10.80;76.80
38480;DHT22;62333;51.980;5.934;2023-11-18T00:06:15;10.80;76.90
38480;DHT22;62333;51.980;5.934;2023-11-18T00:08:41;10.80;77.00
38480;DHT22;62333;51.980;5.934;2023-11-18T00:11:07;10.90;77.00
38480;DHT22;62333;51.980;5.934;2023-11-18T00:13:34;10.90;77.00
38480;DHT22;62333;51.980;5.934;2023-11-18T00:16:00;10.80;77.00
38480;DHT22;62333;51.980;5.934;2023-11-18T00:18:25;10.90;77.10
38480;DHT22;62333;51.980;5.934;2023-11-18T00:20:51;10.90;77.10
38480;DHT22;62333;51.980;5.934;2023-11-18T00:23:17;10.90;77.70
38480;DHT22;62333;51.980;5.934;2023-11-18T00:25:43;10.80;77.10
38480;DHT22;62333;51.980;5.934;2023-11-18T00:28:10;10.80;77.30
38480;DHT22;62333;51.980;5.934;2023-11-18T00:30:37;10.80;77.30
38480;DHT22;62333;51.980;5.934;2023-11-18T00:33:03;10.90;77.50
38480;DHT22;62333;51.980;5.934;2023-11-18T00:35:28;10.90;77.60
38480;DHT22;62333;51.980;5.934;2023-11-18T00:37:57;10.90;77.70
38480;DHT22;62333;51.980;5.934;2023-11-18T00:40:24;10.90;77.70
38480;DHT22;62333;51.980;5.934;2023-11-18T00:42:50;10.90;77.70
38480;DHT22;62333;51.980;5.934;2023-11-18T00:45:15;10.90;77.70
38480;DHT22;62333;51.980;5.934;2023-11-18T00:47:41;10.90;77.70
38480;DHT22;62333;51.980;5.934;2023-11-18T00:50:07;11.00;77.70
38480;DHT22;62333;51.980;5.934;2023-11-18T00:52:36;10.90;77.60
38480;DHT22;62333;51.980;5.934;2023-11-18T00:55:05;10.90;77.70
38480;DHT22;62333;51.980;5.934;2023-11-18T00:57:32;10.90;77.80
38480;DHT22;62333;51.980;5.934;2023-11-18T00:59:57;10.90;77.70
38480;DHT22;62333;51.980;5.934;2023-11-18T01:02:24;10.90;77.80
38480;DHT22;62333;51.980;5.934;2023-11-18T01:04:49;10.90;77.80
38480;DHT22;62333;51.980;5.934;2023-11-18T01:07:16;10.90;77.70
38480;DHT22;62333;51.980;5.934;2023-11-18T01:09:41;10.90;77.70
38480;DHT22;62333;51.980;5.934;2023-11-18T01:12:07;10.90;77.70
38480;DHT22;62333;51.980;5.934;2023-11-18T01:14:38;10.90;77.70
38480;DHT22;62333;51.980;5.934;2023-11-18T01:17:05;10.90;77.60
38480;DHT22;62333;51.980;5.934;2023-11-18T01:19:31;10.90;77.60
38480;DHT22;62333;51.980;5.934;2023-11-18T01:21:57;10.80;77.50
38480;DHT22;62333;51.980;5.934;2023-11-18T01:24:23;10.90;77.60
38480;DHT22;62333;51.980;5.934;2023-11-18T01:26:48;10.80;77.60
38480;DHT22;62333;51.980;5.934;2023-11-18T01:29:14;10.80;77.60
38480;DHT22;62333;51.980;5.934;2023-11-18T01:31:40;10.80;77.60
38480;DHT22;62333;51.980;5.934;2023-11-18T01:34:07;10.80;77.50
38480;DHT22;62333;51.980;5.934;2023-11-18T01:36:33;10.80;77.50
38480;DHT22;62333;51.980;5.934;2023-11-18T01:38:59;10.70;77.40
38480;DHT22;62333;51.980;5.934;2023-11-18T01:41:24;10.70;77.50
38480;DHT22;62333;51.980;5.934;2023-11-18T01:43:50;10.70;77.50
38480;DHT22;62333;51.980;5.934;2023-11-18T01:46:16;10.70;77.50
38480;DHT22;62333;51.980;5.934;2023-11-18T01:48:43;10.70;77.50
38480;DHT22;62333;51.980;5.934;2023-11-18T01:51:09;10.60;77.50
38480;DHT22;62333;51.980;5.934;2023-11-18T01:53:37;10.60;77.60
38480;DHT22;62333;51.980;5.934;2023-11-18T01:56:05;10.60;77.60
38480;DHT22;62333;51.980;5.934;2023-11-18T01:58:33;10.70;77.70
38480;DHT22;62333;51.980;5.934;2023-11-18T02:01:01;10.70;77.80
38480;DHT22;62333;51.980;5.934;2023-11-18T02:03:27;10.70;78.00
38480;DHT22;62333;51.980;5.934;2023-11-18T02:05:53;10.70;78.00
38480;DHT22;62333;51.980;5.934;2023-11-18T02:08:19;10.60;78.00
38480;DHT22;62333;51.980;5.934;2023-11-18T02:10:57;10.70;78.10
38480;DHT22;62333;51.980;5.934;2023-11-18T02:13:34;10.70;78.10
38480;DHT22;62333;51.980;5.934;2023-11-18T02:16:04;10.70;78.20
38480;DHT22;62333;51.980;5.934;2023-11-18T02:18:32;10.60;78.40
38480;DHT22;62333;51.980;5.934;2023-11-18T02:20:59;10.60;78.40
38480;DHT22;62333;51.980;5.934;2023-11-18T02:23:28;10.60;78.40
38480;DHT22;62333;51.980;5.934;2023-11-18T02:25:54;10.60;78.40
38480;DHT22;62333;51.980;5.934;2023-11-18T02:28:21;10.60;78.60
38480;DHT22;62333;51.980;5.934;2023-11-18T02:30:47;10.60;78.70
38480;DHT22;62333;51.980;5.934;2023-11-18T02:33:20;10.60;78.70
38480;DHT22;62333;51.980;5.934;2023-11-18T02:35:51;10.60;78.70
38480;DHT22;62333;51.980;5.934;2023-11-18T02:38:25;10.50;78.70
38480;DHT22;62333;51.980;5.934;2023-11-18T02:40:53;10.50;78.90
38480;DHT22;62333;51.980;5.934;2023-11-18T02:43:24;10.40;79.10
38480;DHT22;62333;51.980;5.934;2023-11-18T02:45:50;10.40;79.30
38480;DHT22;62333;51.980;5.934;2023-11-18T02:48:17;10.30;79.40
38480;DHT22;62333;51.980;5.934;2023-11-18T02:50:43;10.30;79.50
38480;DHT22;62333;51.980;5.934;2023-11-18T02:53:09;10.30;79.60
38480;DHT22;62333;51.980;5.934;2023-11-18T02:55:35;10.20;79.60
38480;DHT22;62333;51.980;5.934;2023-11-18T02:58:01;10.30;79.70
38480;DHT22;62333;51.980;5.934;2023-11-18T03:00:27;10.30;79.80
38480;DHT22;62333;51.980;5.934;2023-11-18T03:02:54;10.20;79.70
38480;DHT22;62333;51.980;5.934;2023-11-18T03:05:20;10.30;79.90
38480;DHT22;62333;51.980;5.934;2023-11-18T03:07:47;10.30;79.90
38480;DHT22;62333;51.980;5.934;2023-11-18T03:10:18;10.20;80.00
38480;DHT22;62333;51.980;5.934;2023-11-18T03:12:51;10.20;80.10
38480;DHT22;62333;51.980;5.934;2023-11-18T03:15:22;10.20;80.20
38480;DHT22;62333;51.980;5.934;2023-11-18T03:17:48;10.20;80.30
38480;DHT22;62333;51.980;5.934;2023-11-18T03:20:22;10.20;80.50
38480;DHT22;62333;51.980;5.934;2023-11-18T03:22:49;10.20;80.50
38480;DHT22;62333;51.980;5.934;2023-11-18T03:25:16;10.20;80.70
38480;DHT22;62333;51.980;5.934;2023-11-18T03:27:43;10.20;80.70
38480;DHT22;62333;51.980;5.934;2023-11-18T03:30:10;10.20;80.80
38480;DHT22;62333;51.980;5.934;2023-11-18T03:32:36;10.20;80.90
38480;DHT22;62333;51.980;5.934;2023-11-18T03:35:03;10.20;80.90
38480;DHT22;62333;51.980;5.934;2023-11-18T03:37:29;10.30;81.00
38480;DHT22;62333;51.980;5.934;2023-11-18T03:39:55;10.30;81.00
38480;DHT22;62333;51.980;5.934;2023-11-18T03:42:21;10.30;81.00
38480;DHT22;62333;51.980;5.934;2023-11-18T03:44:47;10.20;81.60
38480;DHT22;62333;51.980;5.934;2023-11-18T03:47:14;10.20;81.10
38480;DHT22;62333;51.980;5.934;2023-11-18T03:49:40;10.30;81.20
38480;DHT22;62333;51.980;5.934;2023-11-18T03:52:06;10.20;81.20
38480;DHT22;62333;51.980;5.934;2023-11-18T03:54:32;10.30;81.40
38480;DHT22;62333;51.980;5.934;2023-11-18T03:56:57;10.30;81.40
38480;DHT22;62333;51.980;5.934;2023-11-18T03:59:23;10.30;81.40
38480;DHT22;62333;51.980;5.934;2023-11-18T04:01:49;10.30;81.50
38480;DHT22;62333;51.980;5.934;2023-11-18T04:04:16;10.30;81.50
38480;DHT22;62333;51.980;5.934;2023-11-18T04:06:42;10.20;81.60
38480;DHT22;62333;51.980;5.934;2023-11-18T04:09:08;10.30;81.70
38480;DHT22;62333;51.980;5.934;2023-11-18T04:11:35;10.20;81.70
38480;DHT22;62333;51.980;5.934;2023-11-18T04:14:01;10.20;81.80
38480;DHT22;62333;51.980;5.934;2023-11-18T04:16:29;10.20;81.90
38480;DHT22;62333;51.980;5.934;2023-11-18T04:18:54;10.20;82.00
38480;DHT22;62333;51.980;5.934;2023-11-18T04:21:21;10.20;82.20
38480;DHT22;62333;51.980;5.934;2023-11-18T04:23:47;10.20;82.30
38480;DHT22;62333;51.980;5.934;2023-11-18T04:26:12;10.20;82.40
38480;DHT22;62333;51.980;5.934;2023-11-18T04:28:38;10.10;82.40
38480;DHT22;62333;51.980;5.934;2023-11-18T04:31:04;10.10;82.50
38480;DHT22;62333;51.980;5.934;2023-11-18T04:33:31;10.10;82.60
38480;DHT22;62333;51.980;5.934;2023-11-18T04:35:56;10.20;82.60
38480;DHT22;62333;51.980;5.934;2023-11-18T04:38:26;10.20;82.60
38480;DHT22;62333;51.980;5.934;2023-11-18T04:40:55;10.10;82.70
38480;DHT22;62333;51.980;5.934;2023-11-18T04:43:21;10.10;82.80
38480;DHT22;62333;51.980;5.934;2023-11-18T04:45:50;10.10;82.90
38480;DHT22;62333;51.980;5.934;2023-11-18T04:48:16;10.20;83.00
38480;DHT22;62333;51.980;5.934;2023-11-18T04:50:42;10.10;83.10
38480;DHT22;62333;51.980;5.934;2023-11-18T04:53:08;10.10;83.20
38480;DHT22;62333;51.980;5.934;2023-11-18T04:55:36;10.10;83.30
38480;DHT22;62333;51.980;5.934;2023-11-18T04:58:01;10.10;83.40
38480;DHT22;62333;51.980;5.934;2023-11-18T05:00:28;10.10;83.40
38480;DHT22;62333;51.980;5.934;2023-11-18T05:02:54;10.10;83.40
38480;DHT22;62333;51.980;5.934;2023-11-18T05:05:20;10.10;83.30
38480;DHT22;62333;51.980;5.934;2023-11-18T05:07:47;10.10;83.60
38480;DHT22;62333;51.980;5.934;2023-11-18T05:10:13;10.10;83.70
38480;DHT22;62333;51.980;5.934;2023-11-18T05:12:39;10.00;83.90
38480;DHT22;62333;51.980;5.934;2023-11-18T05:15:09;10.00;84.00
38480;DHT22;62333;51.980;5.934;2023-11-18T05:17:36;10.00;84.00
38480;DHT22;62333;51.980;5.934;2023-11-18T05:20:06;10.00;84.10
38480;DHT22;62333;51.980;5.934;2023-11-18T05:22:36;10.10;84.10
38480;DHT22;62333;51.980;5.934;2023-11-18T05:25:03;10.10;84.30
38480;DHT22;62333;51.980;5.934;2023-11-18T05:27:32;10.10;84.20
38480;DHT22;62333;51.980;5.934;2023-11-18T05:29:58;10.10;84.30
38480;DHT22;62333;51.980;5.934;2023-11-18T05:32:29;10.10;84.30
38480;DHT22;62333;51.980;5.934;2023-11-18T05:34:59;10.20;84.20
38480;DHT22;62333;51.980;5.934;2023-11-18T05:37:24;10.20;84.20
38480;DHT22;62333;51.980;5.934;2023-11-18T05:39:50;10.20;84.10
38480;DHT22;62333;51.980;5.934;2023-11-18T05:42:25;10.30;84.10
38480;DHT22;62333;51.980;5.934;2023-11-18T05:44:51;10.30;84.20
38480;DHT22;62333;51.980;5.934;2023-11-18T05:47:23;10.20;84.20
38480;DHT22;62333;51.980;5.934;2023-11-18T05:49:49;10.30;84.30
38480;DHT22;62333;51.980;5.934;2023-11-18T05:52:14;10.20;84.20
38480;DHT22;62333;51.980;5.934;2023-11-18T05:54:40;10.20;84.40
38480;DHT22;62333;51.980;5.934;2023-11-18T05:57:06;10.10;84.40
38480;DHT22;62333;51.980;5.934;2023-11-18T05:59:32;10.10;84.60
38480;DHT22;62333;51.980;5.934;2023-11-18T06:01:58;10.10;84.70
38480;DHT22;62333;51.980;5.934;2023-11-18T06:04:23;10.10;84.70
38480;DHT22;62333;51.980;5.934;2023-11-18T06:06:49;10.10;84.70
38480;DHT22;62333;51.980;5.934;2023-11-18T06:09:15;10.10;84.70
38480;DHT22;62333;51.980;5.934;2023-11-18T06:11:49;10.10;84.70
38480;DHT22;62333;51.980;5.934;2023-11-18T06:14:15;10.10;84.60
38480;DHT22;62333;51.980;5.934;2023-11-18T06:16:42;10.10;84.60
38480;DHT22;62333;51.980;5.934;2023-11-18T06:19:08;10.10;84.60
38480;DHT22;62333;51.980;5.934;2023-11-18T06:21:33;10.20;84.60
38480;DHT22;62333;51.980;5.934;2023-11-18T06:24:00;10.10;84.60
38480;DHT22;62333;51.980;5.934;2023-11-18T06:26:27;10.10;84.60
38480;DHT22;62333;51.980;5.934;2023-11-18T06:28:56;10.10;84.70
38480;DHT22;62333;51.980;5.934;2023-11-18T06:31:22;10.10;84.70
38480;DHT22;62333;51.980;5.934;2023-11-18T06:33:49;10.10;84.80
38480;DHT22;62333;51.980;5.934;2023-11-18T06:38:44;10.00;84.90
38480;DHT22;62333;51.980;5.934;2023-11-18T06:41:10;10.00;85.00
38480;DHT22;62333;51.980;5.934;2023-11-18T06:43:37;10.00;85.00
38480;DHT22;62333;51.980;5.934;2023-11-18T06:46:29;10.00;85.00
38480;DHT22;62333;51.980;5.934;2023-11-18T06:48:57;10.00;84.90
38480;DHT22;62333;51.980;5.934;2023-11-18T06:51:26;10.00;85.00
38480;DHT22;62333;51.980;5.934;2023-11-18T06:53:53;10.00;84.90
38480;DHT22;62333;51.980;5.934;2023-11-18T06:56:24;10.10;85.00
38480;DHT22;62333;51.980;5.934;2023-11-18T06:58:50;10.00;85.00
38480;DHT22;62333;51.980;5.934;2023-11-18T07:01:16;10.00;85.10
38480;DHT22;62333;51.980;5.934;2023-11-18T07:03:43;10.00;85.20
38480;DHT22;62333;51.980;5.934;2023-11-18T07:06:09;9.90;85.20
38480;DHT22;62333;51.980;5.934;2023-11-18T07:08:38;9.90;85.30
38480;DHT22;62333;51.980;5.934;2023-11-18T07:11:05;9.90;85.30
38480;DHT22;62333;51.980;5.934;2023-11-18T07:13:32;9.90;85.40
38480;DHT22;62333;51.980;5.934;2023-11-18T07:16:00;9.90;85.40
38480;DHT22;62333;51.980;5.934;2023-11-18T07:18:28;10.00;85.40
38480;DHT22;62333;51.980;5.934;2023-11-18T07:20:56;10.00;85.40
38480;DHT22;62333;51.980;5.934;2023-11-18T07:23:23;10.00;85.40
38480;DHT22;62333;51.980;5.934;2023-11-18T07:25:49;9.90;85.50
38480;DHT22;62333;51.980;5.934;2023-11-18T07:28:15;9.90;85.50
38480;DHT22;62333;51.980;5.934;2023-11-18T07:30:41;9.90;85.60
38480;DHT22;62333;51.980;5.934;2023-11-18T07:33:08;9.90;85.50
38480;DHT22;62333;51.980;5.934;2023-11-18T07:35:34;9.90;85.50
38480;DHT22;62333;51.980;5.934;2023-11-18T07:38:02;9.90;85.60
38480;DHT22;62333;51.980;5.934;2023-11-18T07:40:28;9.90;85.60
38480;DHT22;62333;51.980;5.934;2023-11-18T07:42:56;9.90;85.60
38480;DHT22;62333;51.980;5.934;2023-11-18T07:45:23;9.90;86.20
38480;DHT22;62333;51.980;5.934;2023-11-18T07:47:52;9.90;85.60
38480;DHT22;62333;51.980;5.934;2023-11-18T07:50:19;10.00;85.50
38480;DHT22;62333;51.980;5.934;2023-11-18T07:52:47;9.90;85.50
38480;DHT22;62333;51.980;5.934;2023-11-18T07:55:14;9.90;85.60
38480;DHT22;62333;51.980;5.934;2023-11-18T07:57:40;9.90;85.60
38480;DHT22;62333;51.980;5.934;2023-11-18T08:00:07;10.00;85.60
38480;DHT22;62333;51.980;5.934;2023-11-18T08:02:36;10.00;85.50
38480;DHT22;62333;51.980;5.934;2023-11-18T08:05:04;10.00;85.50
38480;DHT22;62333;51.980;5.934;2023-11-18T08:07:34;10.00;85.50
38480;DHT22;62333;51.980;5.934;2023-11-18T08:10:04;10.00;85.50
38480;DHT22;62333;51.980;5.934;2023-11-18T08:12:33;10.00;85.50
38480;DHT22;62333;51.980;5.934;2023-11-18T08:15:00;10.00;85.50
38480;DHT22;62333;51.980;5.934;2023-11-18T08:17:26;10.00;85.50
38480;DHT22;62333;51.980;5.934;2023-11-18T08:19:52;10.00;85.50
38480;DHT22;62333;51.980;5.934;2023-11-18T08:22:18;10.00;85.50
38480;DHT22;62333;51.980;5.934;2023-11-18T08:24:46;10.10;85.60
38480;DHT22;62333;51.980;5.934;2023-11-18T08:27:12;10.00;85.40
38480;DHT22;62333;51.980;5.934;2023-11-18T08:29:37;10.00;85.50
38480;DHT22;62333;51.980;5.934;2023-11-18T08:32:05;10.00;85.60
38480;DHT22;62333;51.980;5.934;2023-11-18T08:34:32;10.00;85.60
38480;DHT22;62333;51.980;5.934;2023-11-18T08:36:59;10.00;85.80
38480;DHT22;62333;51.980;5.934;2023-11-18T08:39:25;9.90;85.90
38480;DHT22;62333;51.980;5.934;2023-11-18T08:41:51;9.90;86.00
38480;DHT22;62333;51.980;5.934;2023-11-18T08:44:17;9.90;86.00
38480;DHT22;62333;51.980;5.934;2023-11-18T08:46:43;9.80;86.20
38480;DHT22;62333;51.980;5.934;2023-11-18T08:49:09;9.80;86.20
38480;DHT22;62333;51.980;5.934;2023-11-18T08:51:37;9.80;86.20
38480;DHT22;62333;51.980;5.934;2023-11-18T08:54:04;9.90;86.20
38480;DHT22;62333;51.980;5.934;2023-11-18T08:56:56;9.90;86.20
38480;DHT22;62333;51.980;5.934;2023-11-18T08:59:23;10.00;86.20
38480;DHT22;62333;51.980;5.934;2023-11-18T09:01:52;10.00;86.20
38480;DHT22;62333;51.980;5.934;2023-11-18T09:04:24;10.00;86.10
38480;DHT22;62333;51.980;5.934;2023-11-18T09:06:53;10.00;86.00
38480;DHT22;62333;51.980;5.934;2023-11-18T09:09:20;10.10;86.20
38480;DHT22;62333;51.980;5.934;2023-11-18T09:11:55;10.10;86.10
38480;DHT22;62333;51.980;5.934;2023-11-18T09:14:24;10.10;86.10
38480;DHT22;62333;51.980;5.934;2023-11-18T09:16:53;10.20;86.10
38480;DHT22;62333;51.980;5.934;2023-11-18T09:19:24;10.20;86.00
38480;DHT22;62333;51.980;5.934;2023-11-18T09:21:50;10.20;86.00
38480;DHT22;62333;51.980;5.934;2023-11-18T09:24:17;10.30;85.90
38480;DHT22;62333;51.980;5.934;2023-11-18T09:26:46;10.30;85.90
38480;DHT22;62333;51.980;5.934;2023-11-18T09:29:13;10.30;85.90
38480;DHT22;62333;51.980;5.934;2023-11-18T09:31:45;10.30;86.00
38480;DHT22;62333;51.980;5.934;2023-11-18T09:34:14;10.30;86.10
38480;DHT22;62333;51.980;5.934;2023-11-18T09:36:43;10.30;86.00
38480;DHT22;62333;51.980;5.934;2023-11-18T09:39:09;10.30;86.00
38480;DHT22;62333;51.980;5.934;2023-11-18T09:41:57;10.40;85.90
38480;DHT22;62333;51.980;5.934;2023-11-18T09:44:23;10.40;86.00
38480;DHT22;62333;51.980;5.934;2023-11-18T09:46:57;10.40;86.00
38480;DHT22;62333;51.980;5.934;2023-11-18T09:49:32;10.30;85.90
38480;DHT22;62333;51.980;5.934;2023-11-18T09:52:05;10.40;86.10
38480;DHT22;62333;51.980;5.934;2023-11-18T09:55:03;10.40;86.00
38480;DHT22;62333;51.980;5.934;2023-11-18T09:57:40;10.40;85.80
38480;DHT22;62333;51.980;5.934;2023-11-18T10:00:11;10.40;86.00
38480;DHT22;62333;51.980;5.934;2023-11-18T10:02:52;10.40;86.00
38480;DHT22;62333;51.980;5.934;2023-11-18T10:05:19;10.40;86.20
38480;DHT22;62333;51.980;5.934;2023-11-18T10:07:52;10.40;86.20
38480;DHT22;62333;51.980;5.934;2023-11-18T10:10:21;10.40;86.30
38480;DHT22;62333;51.980;5.934;2023-11-18T10:12:48;10.30;86.20
38480;DHT22;62333;51.980;5.934;2023-11-18T10:15:30;10.30;86.30
38480;DHT22;62333;51.980;5.934;2023-11-18T10:17:57;10.30;86.40
38480;DHT22;62333;51.980;5.934;2023-11-18T10:20:45;10.30;86.40
38480;DHT22;62333;51.980;5.934;2023-11-18T10:23:13;10.50;86.20
38480;DHT22;62333;51.980;5.934;2023-11-18T10:30:59;10.50;86.20
38480;DHT22;62333;51.980;5.934;2023-11-18T10:33:38;10.50;86.20
38480;DHT22;62333;51.980;5.934;2023-11-18T10:36:20;10.50;86.30
38480;DHT22;62333;51.980;5.934;2023-11-18T10:38:48;10.50;86.20
38480;DHT22;62333;51.980;5.934;2023-11-18T10:41:21;10.50;86.50
38480;DHT22;62333;51.980;5.934;2023-11-18T10:43:47;10.50;86.60
38480;DHT22;62333;51.980;5.934;2023-11-18T10:46:16;10.50;86.70
38480;DHT22;62333;51.980;5.934;2023-11-18T10:48:47;10.40;86.80
38480;DHT22;62333;51.980;5.934;2023-11-18T10:51:14;10.50;86.80
38480;DHT22;62333;51.980;5.934;2023-11-18T10:53:42;10.40;86.90
38480;DHT22;62333;51.980;5.934;2023-11-18T10:56:24;10.40;87.00
38480;DHT22;62333;51.980;5.934;2023-11-18T10:58:58;10.40;87.00
38480;DHT22;62333;51.980;5.934;2023-11-18T11:01:43;10.50;87.00
38480;DHT22;62333;51.980;5.934;2023-11-18T11:04:10;10.50;86.70
38480;DHT22;62333;51.980;5.934;2023-11-18T11:06:43;10.50;87.10
38480;DHT22;62333;51.980;5.934;2023-11-18T11:09:11;10.60;87.60
38480;DHT22;62333;51.980;5.934;2023-11-18T11:11:59;10.50;87.20
38480;DHT22;62333;51.980;5.934;2023-11-18T11:14:33;10.50;87.30
38480;DHT22;62333;51.980;5.934;2023-11-18T11:17:06;10.50;87.60
38480;DHT22;62333;51.980;5.934;2023-11-18T11:19:59;10.50;87.60
38480;DHT22;62333;51.980;5.934;2023-11-18T11:28:22;10.40;88.20
38480;DHT22;62333;51.980;5.934;2023-11-18T11:31:20;10.30;88.10
38480;DHT22;62333;51.980;5.934;2023-11-18T11:34:17;10.40;88.00
38480;DHT22;62333;51.980;5.934;2023-11-18T11:36:50;10.40;88.10
38480;DHT22;62333;51.980;5.934;2023-11-18T11:39:17;10.40;88.40
38480;DHT22;62333;51.980;5.934;2023-11-18T11:41:51;10.40;88.30
38480;DHT22;62333;51.980;5.934;2023-11-18T11:44:17;10.40;88.40
38480;DHT22;62333;51.980;5.934;2023-11-18T11:46:46;10.40;88.40
38480;DHT22;62333;51.980;5.934;2023-11-18T11:49:20;10.40;88.50
38480;DHT22;62333;51.980;5.934;2023-11-18T11:51:49;10.40;88.50
38480;DHT22;62333;51.980;5.934;2023-11-18T11:54:27;10.40;88.50
38480;DHT22;62333;51.980;5.934;2023-11-18T11:56:57;10.50;88.70
38480;DHT22;62333;51.980;5.934;2023-11-18T11:59:36;10.40;89.00
38480;DHT22;62333;51.980;5.934;2023-11-18T12:02:22;10.40;89.20
38480;DHT22;62333;51.980;5.934;2023-11-18T12:04:57;10.40;89.50
38480;DHT22;62333;51.980;5.934;2023-11-18T12:07:32;10.40;89.80
38480;DHT22;62333;51.980;5.934;2023-11-18T12:10:07;10.30;89.90
38480;DHT22;62333;51.980;5.934;2023-11-18T12:12:39;10.30;90.00
38480;DHT22;62333;51.980;5.934;2023-11-18T12:15:05;10.30;90.00
38480;DHT22;62333;51.980;5.934;2023-11-18T12:20:45;10.30;90.00
38480;DHT22;62333;51.980;5.934;2023-11-18T12:23:19;10.40;90.00
38480;DHT22;62333;51.980;5.934;2023-11-18T12:25:48;10.40;90.10
38480;DHT22;62333;51.980;5.934;2023-11-18T12:28:21;10.40;90.10
38480;DHT22;62333;51.980;5.934;2023-11-18T12:30:47;10.40;90.10
38480;DHT22;62333;51.980;5.934;2023-11-18T12:42:07;10.60;90.10
38480;DHT22;62333;51.980;5.934;2023-11-18T12:44:37;10.60;90.10
38480;DHT22;62333;51.980;5.934;2023-11-18T12:47:06;10.50;90.20
38480;DHT22;62333;51.980;5.934;2023-11-18T12:49:44;10.60;90.20
38480;DHT22;62333;51.980;5.934;2023-11-18T12:52:11;10.50;90.30
38480;DHT22;62333;51.980;5.934;2023-11-18T12:54:40;10.60;90.40
38480;DHT22;62333;51.980;5.934;2023-11-18T12:57:11;10.50;90.50
38480;DHT22;62333;51.980;5.934;2023-11-18T12:59:40;10.60;90.50
38480;DHT22;62333;51.980;5.934;2023-11-18T13:02:10;10.60;90.60
38480;DHT22;62333;51.980;5.934;2023-11-18T13:04:47;10.60;90.60
38480;DHT22;62333;51.980;5.934;2023-11-18T13:07:18;10.60;90.70
38480;DHT22;62333;51.980;5.934;2023-11-18T13:09:44;10.60;90.70
38480;DHT22;62333;51.980;5.934;2023-11-18T13:12:11;10.60;90.80
38480;DHT22;62333;51.980;5.934;2023-11-18T13:14:41;10.60;90.90
38480;DHT22;62333;51.980;5.934;2023-11-18T13:17:12;10.60;91.00
38480;DHT22;62333;51.980;5.934;2023-11-18T13:19:42;10.60;91.00
38480;DHT22;62333;51.980;5.934;2023-11-18T13:22:09;10.60;91.10
38480;DHT22;62333;51.980;5.934;2023-11-18T13:24:42;10.60;91.20
38480;DHT22;62333;51.980;5.934;2023-11-18T13:27:13;10.60;91.20
38480;DHT22;62333;51.980;5.934;2023-11-18T13:29:43;10.60;91.20
38480;DHT22;62333;51.980;5.934;2023-11-18T13:32:11;10.60;91.10
38480;DHT22;62333;51.980;5.934;2023-11-18T13:34:39;10.60;91.20
38480;DHT22;62333;51.980;5.934;2023-11-18T13:37:07;10.50;91.20
38480;DHT22;62333;51.980;5.934;2023-11-18T13:39:34;10.50;91.20
38480;DHT22;62333;51.980;5.934;2023-11-18T13:42:22;10.50;91.30
38480;DHT22;62333;51.980;5.934;2023-11-18T13:44:48;10.60;91.30
38480;DHT22;62333;51.980;5.934;2023-11-18T13:47:18;10.50;91.80
38480;DHT22;62333;51.980;5.934;2023-11-18T13:49:44;10.50;91.50
38480;DHT22;62333;51.980;5.934;2023-11-18T13:52:13;10.50;91.40
38480;DHT22;62333;51.980;5.934;2023-11-18T13:54:41;10.50;91.30
38480;DHT22;62333;51.980;5.934;2023-11-18T13:57:10;10.50;91.40
38480;DHT22;62333;51.980;5.934;2023-11-18T13:59:37;10.60;91.30
38480;DHT22;62333;51.980;5.934;2023-11-18T14:02:04;10.60;91.30
38480;DHT22;62333;51.980;5.934;2023-11-18T14:04:32;10.60;91.30
38480;DHT22;62333;51.980;5.934;2023-11-18T14:07:02;10.60;91.40
38480;DHT22;62333;51.980;5.934;2023-11-18T14:09:31;10.60;91.40
38480;DHT22;62333;51.980;5.934;2023-11-18T14:12:01;10.60;91.50
38480;DHT22;62333;51.980;5.934;2023-11-18T14:14:27;10.60;91.40
38480;DHT22;62333;51.980;5.934;2023-11-18T14:16:54;10.60;91.40
38480;DHT22;62333;51.980;5.934;2023-11-18T14:19:23;10.60;91.50
38480;DHT22;62333;51.980;5.934;2023-11-18T14:21:51;10.70;91.50
38480;DHT22;62333;51.980;5.934;2023-11-18T14:24:16;10.70;91.50
38480;DHT22;62333;51.980;5.934;2023-11-18T14:26:43;10.70;91.50
38480;DHT22;62333;51.980;5.934;2023-11-18T14:29:09;10.70;91.60
38480;DHT22;62333;51.980;5.934;2023-11-18T14:31:37;10.70;91.60
38480;DHT22;62333;51.980;5.934;2023-11-18T14:34:03;10.70;91.70
38480;DHT22;62333;51.980;5.934;2023-11-18T14:36:29;10.70;91.60
38480;DHT22;62333;51.980;5.934;2023-11-18T14:38:55;10.70;91.60
38480;DHT22;62333;51.980;5.934;2023-11-18T14:41:21;10.70;91.70
38480;DHT22;62333;51.980;5.934;2023-11-18T14:43:54;10.70;91.60
38480;DHT22;62333;51.980;5.934;2023-11-18T14:46:20;10.70;91.70
38480;DHT22;62333;51.980;5.934;2023-11-18T14:48:45;10.70;91.80
38480;DHT22;62333;51.980;5.934;2023-11-18T14:51:12;10.70;91.70
38480;DHT22;62333;51.980;5.934;2023-11-18T14:53:37;10.70;91.60
38480;DHT22;62333;51.980;5.934;2023-11-18T14:56:04;10.70;91.70
38480;DHT22;62333;51.980;5.934;2023-11-18T14:58:34;10.70;91.70
38480;DHT22;62333;51.980;5.934;2023-11-18T15:01:03;10.80;91.80
38480;DHT22;62333;51.980;5.934;2023-11-18T15:03:28;10.70;91.80
38480;DHT22;62333;51.980;5.934;2023-11-18T15:05:56;10.70;91.80
38480;DHT22;62333;51.980;5.934;2023-11-18T15:08:22;10.70;91.90
38480;DHT22;62333;51.980;5.934;2023-11-18T15:10:48;10.70;92.00
38480;DHT22;62333;51.980;5.934;2023-11-18T15:13:13;10.60;92.10
38480;DHT22;62333;51.980;5.934;2023-11-18T15:15:43;10.60;92.00
38480;DHT22;62333;51.980;5.934;2023-11-18T15:18:12;10.70;92.10
38480;DHT22;62333;51.980;5.934;2023-11-18T15:20:43;10.70;92.10
38480;DHT22;62333;51.980;5.934;2023-11-18T15:23:09;10.70;92.10
38480;DHT22;62333;51.980;5.934;2023-11-18T15:25:35;10.70;92.20
38480;DHT22;62333;51.980;5.934;2023-11-18T15:28:01;10.70;92.10
38480;DHT22;62333;51.980;5.934;2023-11-18T15:30:27;10.70;92.10
38480;DHT22;62333;51.980;5.934;2023-11-18T15:32:53;10.70;92.10
38480;DHT22;62333;51.980;5.934;2023-11-18T15:35:19;10.80;92.10
38480;DHT22;62333;51.980;5.934;2023-11-18T15:37:46;10.80;92.10
38480;DHT22;62333;51.980;5.934;2023-11-18T15:40:16;10.80;92.10
38480;DHT22;62333;51.980;5.934;2023-11-18T15:42:46;10.80;92.10
38480;DHT22;62333;51.980;5.934;2023-11-18T15:45:16;10.80;92.00
38480;DHT22;62333;51.980;5.934;2023-11-18T15:47:42;10.80;92.00
38480;DHT22;62333;51.980;5.934;2023-11-18T15:50:10;10.80;92.00
38480;DHT22;62333;51.980;5.934;2023-11-18T15:52:46;10.80;92.00
38480;DHT22;62333;51.980;5.934;2023-11-18T15:55:13;10.80;92.00
38480;DHT22;62333;51.980;5.934;2023-11-18T15:57:44;10.70;92.00
38480;DHT22;62333;51.980;5.934;2023-11-18T16:00:11;10.80;92.10
38480;DHT22;62333;51.980;5.934;2023-11-18T16:02:43;10.80;92.00
38480;DHT22;62333;51.980;5.934;2023-11-18T16:05:11;10.80;92.00
38480;DHT22;62333;51.980;5.934;2023-11-18T16:07:39;10.80;91.90